sensor_id;sensor_type;location;lat;lon;timestamp;pressure;altitude;pressure_sealevel;temperature;humidity
20368;BME280;10343;52.402;9.796;2024-01-15T00:00:12;99229.25;;;1.68;85.62
20368;BME280;10343;52.402;9.796;2024-01-15T00:02:40;99214.13;;;1.67;85.64
20368;BME280;10343;52.402;9.796;2024-01-15T00:05:08;99218.78;;;1.62;84.92
20368;BME280;10343;52.402;9.796;2024-01-15T00:07:35;99224.38;;;1.70;85.52
20368;BME280;10343;52.402;9.796;2024-01-15T00:10:04;99227.13;;;1.65;85.29
20368;BME280;10343;52.402;9.796;2024-01-15T00:12:32;99209.53;;;1.68;85.74
20368;BME280;10343;52.402;9.796;2024-01-15T00:15:01;99205.38;;;1.75;85.05
20368;BME280;10343;52.402;9.796;2024-01-15T00:17:29;99194.03;;;1.73;84.85
20368;BME280;10343;52.402;9.796;2024-01-15T00:19:57;99203.53;;;1.71;84.66
20368;BME280;10343;52.402;9.796;2024-01-15T00:22:26;99216.13;;;1.57;84.77
20368;BME280;10343;52.402;9.796;2024-01-15T00:24:54;99213.66;;;1.60;84.48
20368;BME280;10343;52.402;9.796;2024-01-15T00:27:22;99213.09;;;1.63;83.81
20368;BME280;10343;52.402;9.796;2024-01-15T00:29:50;99209.31;;;1.59;83.45
20368;BME280;10343;52.402;9.796;2024-01-15T00:32:20;99215.25;;;1.61;83.83
20368;BME280;10343;52.402;9.796;2024-01-15T00:34:48;99211.34;;;1.72;83.71
20368;BME280;10343;52.402;9.796;2024-01-15T00:37:16;99219.19;;;1.74;82.99
20368;BME280;10343;52.402;9.796;2024-01-15T00:39:44;99198.88;;;1.76;83.08
20368;BME280;10343;52.402;9.796;2024-01-15T00:42:12;99188.69;;;1.68;83.47
20368;BME280;10343;52.402;9.796;2024-01-15T00:44:40;99181.59;;;1.72;83.67
20368;BME280;10343;52.402;9.796;2024-01-15T00:47:09;99183.00;;;1.70;83.23
20368;BME280;10343;52.402;9.796;2024-01-15T00:49:37;99172.91;;;1.51;83.29
20368;BME280;10343;52.402;9.796;2024-01-15T00:52:05;99175.91;;;1.50;83.23
20368;BME280;10343;52.402;9.796;2024-01-15T00:54:33;99189.44;;;1.50;83.30
20368;BME280;10343;52.402;9.796;2024-01-15T00:57:01;99188.94;;;1.43;83.78
20368;BME280;10343;52.402;9.796;2024-01-15T00:59:29;99180.75;;;1.53;84.19
20368;BME280;10343;52.402;9.796;2024-01-15T01:01:57;99174.31;;;1.49;83.80
20368;BME280;10343;52.402;9.796;2024-01-15T01:04:24;99163.94;;;1.56;83.60
20368;BME280;10343;52.402;9.796;2024-01-15T01:06:54;99167.69;;;1.60;83.99
20368;BME280;10343;52.402;9.796;2024-01-15T01:09:22;99163.72;;;1.52;83.31
20368;BME280;10343;52.402;9.796;2024-01-15T01:11:49;99176.78;;;1.45;83.54
20368;BME280;10343;52.402;9.796;2024-01-15T01:14:20;99169.34;;;1.56;83.00
20368;BME280;10343;52.402;9.796;2024-01-15T01:16:47;99174.00;;;1.50;83.83
20368;BME280;10343;52.402;9.796;2024-01-15T01:19:15;99172.63;;;1.53;83.07
20368;BME280;10343;52.402;9.796;2024-01-15T01:21:43;99170.00;;;1.48;82.79
20368;BME280;10343;52.402;9.796;2024-01-15T01:24:13;99164.59;;;1.48;82.91
20368;BME280;10343;52.402;9.796;2024-01-15T01:26:40;99162.09;;;1.51;82.99
20368;BME280;10343;52.402;9.796;2024-01-15T01:29:08;99160.84;;;1.44;82.49
20368;BME280;10343;52.402;9.796;2024-01-15T01:31:36;99158.41;;;1.42;82.72
20368;BME280;10343;52.402;9.796;2024-01-15T01:34:04;99156.00;;;1.41;82.66
20368;BME280;10343;52.402;9.796;2024-01-15T01:36:31;99153.47;;;1.49;82.89
20368;BME280;10343;52.402;9.796;2024-01-15T01:39:00;99146.97;;;1.50;82.75
20368;BME280;10343;52.402;9.796;2024-01-15T01:41:30;99138.06;;;1.50;81.55
20368;BME280;10343;52.402;9.796;2024-01-15T01:43:58;99138.06;;;1.50;80.89
20368;BME280;10343;52.402;9.796;2024-01-15T01:46:27;99142.25;;;1.61;81.84
20368;BME280;10343;52.402;9.796;2024-01-15T01:48:55;99133.09;;;1.57;81.41
20368;BME280;10343;52.402;9.796;2024-01-15T01:51:24;99127.84;;;1.47;80.93
20368;BME280;10343;52.402;9.796;2024-01-15T01:53:52;99127.97;;;1.56;81.27
20368;BME280;10343;52.402;9.796;2024-01-15T01:56:20;99123.75;;;1.49;80.63
20368;BME280;10343;52.402;9.796;2024-01-15T01:58:49;99128.06;;;1.50;79.64
20368;BME280;10343;52.402;9.796;2024-01-15T02:01:18;99126.56;;;1.63;79.13
20368;BME280;10343;52.402;9.796;2024-01-15T02:03:46;99135.41;;;1.69;79.47
20368;BME280;10343;52.402;9.796;2024-01-15T02:06:14;99135.63;;;1.72;79.22
20368;BME280;10343;52.402;9.796;2024-01-15T02:08:43;99133.34;;;1.79;78.64
20368;BME280;10343;52.402;9.796;2024-01-15T02:11:11;99128.19;;;1.83;79.06
20368;BME280;10343;52.402;9.796;2024-01-15T02:13:39;99131.50;;;1.99;78.26
20368;BME280;10343;52.402;9.796;2024-01-15T02:16:08;99117.41;;;2.02;77.85
20368;BME280;10343;52.402;9.796;2024-01-15T02:18:40;99121.19;;;2.01;77.74
20368;BME280;10343;52.402;9.796;2024-01-15T02:21:08;99121.41;;;2.04;77.79
20368;BME280;10343;52.402;9.796;2024-01-15T02:23:38;99130.25;;;2.10;77.81
20368;BME280;10343;52.402;9.796;2024-01-15T02:26:07;99108.38;;;2.06;77.49
20368;BME280;10343;52.402;9.796;2024-01-15T02:28:35;99106.41;;;2.12;77.21
20368;BME280;10343;52.402;9.796;2024-01-15T02:31:03;99114.69;;;2.21;77.02
20368;BME280;10343;52.402;9.796;2024-01-15T02:33:31;99127.47;;;2.15;76.92
20368;BME280;10343;52.402;9.796;2024-01-15T02:35:59;99116.66;;;2.15;76.16
20368;BME280;10343;52.402;9.796;2024-01-15T02:38:27;99117.69;;;2.19;76.95
20368;BME280;10343;52.402;9.796;2024-01-15T02:40:56;99110.00;;;2.26;76.43
20368;BME280;10343;52.402;9.796;2024-01-15T02:43:24;99110.88;;;2.22;75.91
20368;BME280;10343;52.402;9.796;2024-01-15T02:45:51;99098.38;;;2.26;76.74
20368;BME280;10343;52.402;9.796;2024-01-15T02:48:19;99127.41;;;2.20;75.68
20368;BME280;10343;52.402;9.796;2024-01-15T02:50:47;99112.69;;;2.26;75.72
20368;BME280;10343;52.402;9.796;2024-01-15T02:53:15;99116.50;;;2.25;75.68
20368;BME280;10343;52.402;9.796;2024-01-15T02:55:43;99106.34;;;2.17;76.12
20368;BME280;10343;52.402;9.796;2024-01-15T02:58:12;99100.25;;;2.25;75.75
20368;BME280;10343;52.402;9.796;2024-01-15T03:00:40;99110.38;;;2.20;76.16
20368;BME280;10343;52.402;9.796;2024-01-15T03:03:09;99102.31;;;2.15;76.17
20368;BME280;10343;52.402;9.796;2024-01-15T03:05:37;99094.44;;;2.18;75.58
20368;BME280;10343;52.402;9.796;2024-01-15T03:08:05;99095.88;;;2.29;75.70
20368;BME280;10343;52.402;9.796;2024-01-15T03:10:33;99110.50;;;2.28;75.55
20368;BME280;10343;52.402;9.796;2024-01-15T03:13:01;99104.66;;;2.21;76.11
20368;BME280;10343;52.402;9.796;2024-01-15T03:15:30;99094.78;;;2.11;75.59
20368;BME280;10343;52.402;9.796;2024-01-15T03:17:57;99110.00;;;2.07;76.54
20368;BME280;10343;52.402;9.796;2024-01-15T03:20:25;99124.53;;;2.11;76.64
20368;BME280;10343;52.402;9.796;2024-01-15T03:22:53;99111.09;;;2.06;76.71
20368;BME280;10343;52.402;9.796;2024-01-15T03:25:22;99102.03;;;2.16;76.95
20368;BME280;10343;52.402;9.796;2024-01-15T03:27:50;99091.28;;;2.11;76.19
20368;BME280;10343;52.402;9.796;2024-01-15T03:30:18;99121.84;;;2.11;76.94
20368;BME280;10343;52.402;9.796;2024-01-15T03:32:47;99114.97;;;2.19;76.50
20368;BME280;10343;52.402;9.796;2024-01-15T03:35:16;99118.19;;;2.21;75.94
20368;BME280;10343;52.402;9.796;2024-01-15T03:37:44;99101.66;;;2.23;76.31
20368;BME280;10343;52.402;9.796;2024-01-15T03:40:12;99105.69;;;2.25;76.72
20368;BME280;10343;52.402;9.796;2024-01-15T03:42:43;99113.38;;;2.18;77.01
20368;BME280;10343;52.402;9.796;2024-01-15T03:45:11;99116.28;;;2.22;76.02
20368;BME280;10343;52.402;9.796;2024-01-15T03:47:39;99106.69;;;2.29;75.99
20368;BME280;10343;52.402;9.796;2024-01-15T03:50:09;99116.72;;;2.29;75.93
20368;BME280;10343;52.402;9.796;2024-01-15T03:52:37;99106.09;;;2.32;76.74
20368;BME280;10343;52.402;9.796;2024-01-15T03:55:05;99091.44;;;2.20;76.09
20368;BME280;10343;52.402;9.796;2024-01-15T03:57:33;99115.09;;;2.28;75.24
20368;BME280;10343;52.402;9.796;2024-01-15T04:00:01;99109.50;;;2.24;75.98
20368;BME280;10343;52.402;9.796;2024-01-15T04:02:30;99109.34;;;2.34;74.98
20368;BME280;10343;52.402;9.796;2024-01-15T04:04:58;99107.88;;;2.42;75.31
20368;BME280;10343;52.402;9.796;2024-01-15T04:07:27;99106.34;;;2.36;75.43
20368;BME280;10343;52.402;9.796;2024-01-15T04:09:55;99096.13;;;2.47;75.12
20368;BME280;10343;52.402;9.796;2024-01-15T04:12:23;99092.72;;;2.41;74.57
20368;BME280;10343;52.402;9.796;2024-01-15T04:14:51;99096.53;;;2.40;75.90
20368;BME280;10343;52.402;9.796;2024-01-15T04:17:19;99099.75;;;2.42;75.41
20368;BME280;10343;52.402;9.796;2024-01-15T04:19:48;99104.66;;;2.40;75.03
20368;BME280;10343;52.402;9.796;2024-01-15T04:22:16;99097.03;;;2.42;75.61
20368;BME280;10343;52.402;9.796;2024-01-15T04:24:45;99125.59;;;2.34;75.57
20368;BME280;10343;52.402;9.796;2024-01-15T04:27:14;99107.34;;;2.40;75.48
20368;BME280;10343;52.402;9.796;2024-01-15T04:29:41;99107.66;;;2.38;75.81
20368;BME280;10343;52.402;9.796;2024-01-15T04:32:12;99114.59;;;2.45;75.32
20368;BME280;10343;52.402;9.796;2024-01-15T04:34:39;99093.00;;;2.39;75.78
20368;BME280;10343;52.402;9.796;2024-01-15T04:37:07;99102.16;;;2.43;75.48
20368;BME280;10343;52.402;9.796;2024-01-15T04:39:35;99101.72;;;2.36;76.09
20368;BME280;10343;52.402;9.796;2024-01-15T04:42:05;99094.63;;;2.40;75.76
20368;BME280;10343;52.402;9.796;2024-01-15T04:44:33;99103.47;;;2.46;75.68
20368;BME280;10343;52.402;9.796;2024-01-15T04:47:01;99115.09;;;2.47;76.16
20368;BME280;10343;52.402;9.796;2024-01-15T04:49:28;99116.19;;;2.46;76.53
20368;BME280;10343;52.402;9.796;2024-01-15T04:51:56;99105.97;;;2.42;76.60
20368;BME280;10343;52.402;9.796;2024-01-15T04:54:24;99110.38;;;2.38;75.99
20368;BME280;10343;52.402;9.796;2024-01-15T04:56:52;99095.00;;;2.34;76.47
20368;BME280;10343;52.402;9.796;2024-01-15T04:59:21;99107.34;;;2.40;76.15
20368;BME280;10343;52.402;9.796;2024-01-15T05:01:49;99090.31;;;2.39;75.98
20368;BME280;10343;52.402;9.796;2024-01-15T05:04:17;99094.03;;;2.43;76.15
20368;BME280;10343;52.402;9.796;2024-01-15T05:06:45;99097.84;;;2.24;78.44
20368;BME280;10343;52.402;9.796;2024-01-15T05:09:13;99102.84;;;2.17;79.56
20368;BME280;10343;52.402;9.796;2024-01-15T05:11:41;99086.88;;;2.15;80.64
20368;BME280;10343;52.402;9.796;2024-01-15T05:14:08;99097.19;;;2.13;81.04
20368;BME280;10343;52.402;9.796;2024-01-15T05:16:39;99085.78;;;1.97;80.68
20368;BME280;10343;52.402;9.796;2024-01-15T05:19:07;99094.94;;;2.01;80.62
20368;BME280;10343;52.402;9.796;2024-01-15T05:21:35;99077.44;;;1.94;79.85
20368;BME280;10343;52.402;9.796;2024-01-15T05:24:03;99080.09;;;1.99;80.16
20368;BME280;10343;52.402;9.796;2024-01-15T05:26:31;99084.25;;;1.91;79.94
20368;BME280;10343;52.402;9.796;2024-01-15T05:28:59;99081.47;;;1.96;79.64
20368;BME280;10343;52.402;9.796;2024-01-15T05:31:27;99079.94;;;1.90;80.16
20368;BME280;10343;52.402;9.796;2024-01-15T05:33:56;99084.63;;;1.85;80.08
20368;BME280;10343;52.402;9.796;2024-01-15T05:36:24;99088.66;;;1.87;80.71
20368;BME280;10343;52.402;9.796;2024-01-15T05:38:52;99077.31;;;1.85;80.44
20368;BME280;10343;52.402;9.796;2024-01-15T05:41:20;99084.25;;;1.91;80.29
20368;BME280;10343;52.402;9.796;2024-01-15T05:43:48;99081.72;;;2.00;80.08
20368;BME280;10343;52.402;9.796;2024-01-15T05:46:15;99083.31;;;2.01;79.12
20368;BME280;10343;52.402;9.796;2024-01-15T05:48:43;99079.50;;;2.02;78.89
20368;BME280;10343;52.402;9.796;2024-01-15T05:51:13;99084.63;;;2.03;79.18
20368;BME280;10343;52.402;9.796;2024-01-15T05:53:41;99073.50;;;2.05;79.25
20368;BME280;10343;52.402;9.796;2024-01-15T05:56:10;99076.34;;;2.13;79.09
20368;BME280;10343;52.402;9.796;2024-01-15T05:58:38;99079.28;;;2.17;78.93
20368;BME280;10343;52.402;9.796;2024-01-15T06:01:06;99079.44;;;2.07;78.83
20368;BME280;10343;52.402;9.796;2024-01-15T06:03:34;99079.50;;;2.21;78.09
20368;BME280;10343;52.402;9.796;2024-01-15T06:06:02;99082.28;;;2.16;78.37
20368;BME280;10343;52.402;9.796;2024-01-15T06:08:31;99081.69;;;2.19;78.58
20368;BME280;10343;52.402;9.796;2024-01-15T06:10:59;99084.41;;;2.19;79.61
20368;BME280;10343;52.402;9.796;2024-01-15T06:13:28;99089.53;;;2.20;79.09
20368;BME280;10343;52.402;9.796;2024-01-15T06:15:55;99085.50;;;2.18;78.90
20368;BME280;10343;52.402;9.796;2024-01-15T06:18:23;99080.72;;;2.28;79.50
20368;BME280;10343;52.402;9.796;2024-01-15T06:20:51;99081.41;;;2.20;79.08
20368;BME280;10343;52.402;9.796;2024-01-15T06:23:19;99077.81;;;2.25;79.87
20368;BME280;10343;52.402;9.796;2024-01-15T06:25:48;99079.41;;;2.26;79.30
20368;BME280;10343;52.402;9.796;2024-01-15T06:28:16;99069.38;;;2.26;79.79
20368;BME280;10343;52.402;9.796;2024-01-15T06:30:44;99072.41;;;2.06;79.72
20368;BME280;10343;52.402;9.796;2024-01-15T06:33:12;99082.44;;;2.05;80.12
20368;BME280;10343;52.402;9.796;2024-01-15T06:35:40;99084.97;;;1.97;80.65
20368;BME280;10343;52.402;9.796;2024-01-15T06:38:07;99089.88;;;1.95;80.99
20368;BME280;10343;52.402;9.796;2024-01-15T06:40:35;99089.88;;;1.95;80.58
20368;BME280;10343;52.402;9.796;2024-01-15T06:43:05;99089.44;;;1.88;80.35
20368;BME280;10343;52.402;9.796;2024-01-15T06:45:32;99090.53;;;1.87;80.85
20368;BME280;10343;52.402;9.796;2024-01-15T06:48:01;99087.25;;;1.90;79.96
20368;BME280;10343;52.402;9.796;2024-01-15T06:50:29;99092.59;;;1.95;80.30
20368;BME280;10343;52.402;9.796;2024-01-15T06:52:56;99093.91;;;1.97;79.29
20368;BME280;10343;52.402;9.796;2024-01-15T06:55:24;99101.06;;;2.07;80.11
20368;BME280;10343;52.402;9.796;2024-01-15T06:57:52;99093.91;;;2.16;78.81
20368;BME280;10343;52.402;9.796;2024-01-15T07:00:22;99096.09;;;2.14;78.67
20368;BME280;10343;52.402;9.796;2024-01-15T07:02:50;99103.66;;;2.17;79.41
20368;BME280;10343;52.402;9.796;2024-01-15T07:05:18;99100.13;;;2.17;78.93
20368;BME280;10343;52.402;9.796;2024-01-15T07:07:46;99105.69;;;2.25;77.96
20368;BME280;10343;52.402;9.796;2024-01-15T07:10:14;99078.41;;;2.22;78.46
20368;BME280;10343;52.402;9.796;2024-01-15T07:12:42;99095.44;;;2.22;78.33
20368;BME280;10343;52.402;9.796;2024-01-15T07:15:10;99098.16;;;2.22;78.98
20368;BME280;10343;52.402;9.796;2024-01-15T07:17:39;99104.50;;;2.31;77.76
20368;BME280;10343;52.402;9.796;2024-01-15T07:20:08;99106.56;;;2.21;78.41
20368;BME280;10343;52.402;9.796;2024-01-15T07:22:37;99121.03;;;2.30;78.81
20368;BME280;10343;52.402;9.796;2024-01-15T07:25:06;99112.13;;;2.10;80.14
20368;BME280;10343;52.402;9.796;2024-01-15T07:27:34;99110.59;;;2.04;81.36
20368;BME280;10343;52.402;9.796;2024-01-15T07:30:02;99101.75;;;1.99;81.40
20368;BME280;10343;52.402;9.796;2024-01-15T07:32:32;99111.41;;;2.05;81.91
20368;BME280;10343;52.402;9.796;2024-01-15T07:35:01;99108.25;;;1.98;81.76
20368;BME280;10343;52.402;9.796;2024-01-15T07:37:29;99110.13;;;1.97;81.75
20368;BME280;10343;52.402;9.796;2024-01-15T07:39:56;99123.41;;;1.99;81.88
20368;BME280;10343;52.402;9.796;2024-01-15T07:42:24;99122.59;;;1.98;81.67
20368;BME280;10343;52.402;9.796;2024-01-15T07:44:52;99120.44;;;1.95;81.11
20368;BME280;10343;52.402;9.796;2024-01-15T07:47:20;99116.63;;;1.96;81.90
20368;BME280;10343;52.402;9.796;2024-01-15T07:49:48;99113.38;;;1.99;82.04
20368;BME280;10343;52.402;9.796;2024-01-15T07:52:17;99116.28;;;1.84;83.04
20368;BME280;10343;52.402;9.796;2024-01-15T07:54:45;99107.59;;;2.06;84.53
20368;BME280;10343;52.402;9.796;2024-01-15T07:57:13;99110.78;;;2.27;84.05
20368;BME280;10343;52.402;9.796;2024-01-15T07:59:41;99115.91;;;2.28;82.65
20368;BME280;10343;52.402;9.796;2024-01-15T08:02:09;99112.91;;;2.11;82.89
20368;BME280;10343;52.402;9.796;2024-01-15T08:04:37;99117.97;;;2.18;82.70
20368;BME280;10343;52.402;9.796;2024-01-15T08:07:08;99120.75;;;2.12;82.65
20368;BME280;10343;52.402;9.796;2024-01-15T08:09:37;99122.66;;;2.12;82.81
20368;BME280;10343;52.402;9.796;2024-01-15T08:12:06;99117.19;;;1.98;83.02
20368;BME280;10343;52.402;9.796;2024-01-15T08:14:34;99134.47;;;1.97;83.18
20368;BME280;10343;52.402;9.796;2024-01-15T08:17:01;99130.81;;;1.88;83.95
20368;BME280;10343;52.402;9.796;2024-01-15T08:19:29;99128.78;;;1.80;84.00
20368;BME280;10343;52.402;9.796;2024-01-15T08:21:58;99137.81;;;1.70;84.32
20368;BME280;10343;52.402;9.796;2024-01-15T08:24:26;99131.69;;;1.65;85.14
20368;BME280;10343;52.402;9.796;2024-01-15T08:26:56;99132.81;;;1.59;85.19
20368;BME280;10343;52.402;9.796;2024-01-15T08:29:24;99130.97;;;1.54;84.79
20368;BME280;10343;52.402;9.796;2024-01-15T08:31:52;99133.00;;;1.67;84.27
20368;BME280;10343;52.402;9.796;2024-01-15T08:34:20;99124.53;;;1.50;83.37
20368;BME280;10343;52.402;9.796;2024-01-15T08:36:48;99126.84;;;1.62;84.04
20368;BME280;10343;52.402;9.796;2024-01-15T08:39:16;99130.34;;;1.62;83.13
20368;BME280;10343;52.402;9.796;2024-01-15T08:41:45;99138.19;;;1.64;82.54
20368;BME280;10343;52.402;9.796;2024-01-15T08:44:15;99127.69;;;1.81;82.44
20368;BME280;10343;52.402;9.796;2024-01-15T08:46:43;99127.84;;;1.90;81.55
20368;BME280;10343;52.402;9.796;2024-01-15T08:49:11;99135.44;;;2.06;81.34
20368;BME280;10343;52.402;9.796;2024-01-15T08:51:39;99134.16;;;2.23;80.86
20368;BME280;10343;52.402;9.796;2024-01-15T08:54:07;99123.78;;;2.62;78.71
20368;BME280;10343;52.402;9.796;2024-01-15T08:56:35;99120.19;;;3.13;77.98
20368;BME280;10343;52.402;9.796;2024-01-15T08:59:03;99113.78;;;3.37;76.09
20368;BME280;10343;52.402;9.796;2024-01-15T09:01:32;99112.88;;;3.55;75.09
20368;BME280;10343;52.402;9.796;2024-01-15T09:04:00;99116.09;;;3.71;74.63
20368;BME280;10343;52.402;9.796;2024-01-15T09:06:28;99143.31;;;3.38;74.79
20368;BME280;10343;52.402;9.796;2024-01-15T09:08:56;99121.53;;;3.71;72.93
20368;BME280;10343;52.402;9.796;2024-01-15T09:11:24;99123.75;;;3.69;73.58
20368;BME280;10343;52.402;9.796;2024-01-15T09:13:52;99115.50;;;3.32;74.71
20368;BME280;10343;52.402;9.796;2024-01-15T09:16:20;99126.53;;;3.22;74.21
20368;BME280;10343;52.402;9.796;2024-01-15T09:18:49;99122.03;;;3.45;74.65
20368;BME280;10343;52.402;9.796;2024-01-15T09:21:17;99113.44;;;4.07;72.10
20368;BME280;10343;52.402;9.796;2024-01-15T09:23:45;99126.84;;;3.89;72.57
20368;BME280;10343;52.402;9.796;2024-01-15T09:26:13;99122.94;;;3.82;70.98
20368;BME280;10343;52.402;9.796;2024-01-15T09:28:40;99126.63;;;4.80;69.24
20368;BME280;10343;52.402;9.796;2024-01-15T09:31:08;99118.81;;;7.10;59.17
20368;BME280;10343;52.402;9.796;2024-01-15T09:33:35;99128.84;;;5.01;66.29
20368;BME280;10343;52.402;9.796;2024-01-15T09:36:05;99134.25;;;5.23;66.50
20368;BME280;10343;52.402;9.796;2024-01-15T09:38:34;99137.81;;;5.72;63.05
20368;BME280;10343;52.402;9.796;2024-01-15T09:41:01;99138.00;;;4.38;67.91
20368;BME280;10343;52.402;9.796;2024-01-15T09:43:30;99140.28;;;4.67;68.04
20368;BME280;10343;52.402;9.796;2024-01-15T09:45:58;99137.03;;;4.78;67.29
20368;BME280;10343;52.402;9.796;2024-01-15T09:48:26;99145.56;;;4.85;66.99
20368;BME280;10343;52.402;9.796;2024-01-15T09:50:56;99143.31;;;4.65;68.59
20368;BME280;10343;52.402;9.796;2024-01-15T09:53:26;99145.34;;;4.60;67.92
20368;BME280;10343;52.402;9.796;2024-01-15T09:55:54;99146.44;;;4.36;69.11
20368;BME280;10343;52.402;9.796;2024-01-15T09:58:22;99148.28;;;4.27;69.19
20368;BME280;10343;52.402;9.796;2024-01-15T10:00:51;99159.59;;;3.93;70.62
20368;BME280;10343;52.402;9.796;2024-01-15T10:03:21;99159.41;;;3.76;71.70
20368;BME280;10343;52.402;9.796;2024-01-15T10:05:49;99153.97;;;3.76;72.51
20368;BME280;10343;52.402;9.796;2024-01-15T10:08:18;99150.56;;;3.56;72.22
20368;BME280;10343;52.402;9.796;2024-01-15T10:10:47;99163.03;;;3.57;73.15
20368;BME280;10343;52.402;9.796;2024-01-15T10:13:15;99156.59;;;3.26;74.26
20368;BME280;10343;52.402;9.796;2024-01-15T10:15:45;99163.50;;;3.32;74.05
20368;BME280;10343;52.402;9.796;2024-01-15T10:18:13;99162.56;;;3.23;75.31
20368;BME280;10343;52.402;9.796;2024-01-15T10:20:42;99165.78;;;3.11;75.24
20368;BME280;10343;52.402;9.796;2024-01-15T10:23:09;99159.22;;;2.98;75.67
20368;BME280;10343;52.402;9.796;2024-01-15T10:25:37;99166.16;;;3.04;76.46
20368;BME280;10343;52.402;9.796;2024-01-15T10:28:06;99160.28;;;3.30;75.92
20368;BME280;10343;52.402;9.796;2024-01-15T10:30:34;99155.28;;;3.37;75.09
20368;BME280;10343;52.402;9.796;2024-01-15T10:33:03;99156.19;;;3.74;74.12
20368;BME280;10343;52.402;9.796;2024-01-15T10:35:33;99153.84;;;3.94;73.14
20368;BME280;10343;52.402;9.796;2024-01-15T10:38:02;99142.78;;;4.05;71.87
20368;BME280;10343;52.402;9.796;2024-01-15T10:40:30;99144.59;;;4.09;71.45
20368;BME280;10343;52.402;9.796;2024-01-15T10:42:58;99145.69;;;4.08;71.15
20368;BME280;10343;52.402;9.796;2024-01-15T10:45:27;99142.50;;;4.06;71.34
20368;BME280;10343;52.402;9.796;2024-01-15T10:47:56;99147.38;;;4.32;69.99
20368;BME280;10343;52.402;9.796;2024-01-15T10:50:26;99146.44;;;4.00;70.12
20368;BME280;10343;52.402;9.796;2024-01-15T10:52:54;99146.63;;;3.76;70.59
20368;BME280;10343;52.402;9.796;2024-01-15T10:55:24;99145.75;;;3.81;71.20
20368;BME280;10343;52.402;9.796;2024-01-15T10:57:53;99136.88;;;3.75;70.79
20368;BME280;10343;52.402;9.796;2024-01-15T11:00:26;99143.84;;;3.54;71.50
20368;BME280;10343;52.402;9.796;2024-01-15T11:02:56;99136.31;;;3.51;71.78
20368;BME280;10343;52.402;9.796;2024-01-15T11:05:25;99142.94;;;3.45;71.81
20368;BME280;10343;52.402;9.796;2024-01-15T11:07:55;99137.19;;;3.32;71.52
20368;BME280;10343;52.402;9.796;2024-01-15T11:10:40;99139.09;;;3.32;72.13
20368;BME280;10343;52.402;9.796;2024-01-15T11:13:09;99136.06;;;3.20;71.89
20368;BME280;10343;52.402;9.796;2024-01-15T11:15:58;99134.28;;;3.70;70.89
20368;BME280;10343;52.402;9.796;2024-01-15T11:18:29;99125.03;;;4.35;69.18
20368;BME280;10343;52.402;9.796;2024-01-15T11:21:19;99140.28;;;4.44;67.59
20368;BME280;10343;52.402;9.796;2024-01-15T11:23:50;99124.72;;;4.59;66.81
20368;BME280;10343;52.402;9.796;2024-01-15T11:26:32;99122.19;;;4.84;66.01
20368;BME280;10343;52.402;9.796;2024-01-15T11:29:01;99125.22;;;4.61;66.05
20368;BME280;10343;52.402;9.796;2024-01-15T11:31:56;99131.75;;;4.37;67.65
20368;BME280;10343;52.402;9.796;2024-01-15T11:34:59;99122.81;;;4.59;66.76
20368;BME280;10343;52.402;9.796;2024-01-15T11:37:58;99124.06;;;4.75;66.42
20368;BME280;10343;52.402;9.796;2024-01-15T11:40:38;99105.72;;;4.59;66.06
20368;BME280;10343;52.402;9.796;2024-01-15T11:43:06;99115.75;;;4.80;66.61
20368;BME280;10343;52.402;9.796;2024-01-15T11:45:36;99117.31;;;4.73;65.80
20368;BME280;10343;52.402;9.796;2024-01-15T11:48:14;99112.63;;;4.42;66.34
20368;BME280;10343;52.402;9.796;2024-01-15T11:50:46;99116.09;;;4.34;69.05
20368;BME280;10343;52.402;9.796;2024-01-15T11:53:17;99112.81;;;4.46;68.50
20368;BME280;10343;52.402;9.796;2024-01-15T11:55:46;99120.94;;;4.46;67.49
20368;BME280;10343;52.402;9.796;2024-01-15T11:58:15;99119.94;;;4.19;67.25
20368;BME280;10343;52.402;9.796;2024-01-15T12:00:47;99116.56;;;4.00;68.82
20368;BME280;10343;52.402;9.796;2024-01-15T12:03:16;99104.34;;;4.11;68.20
20368;BME280;10343;52.402;9.796;2024-01-15T12:05:45;99111.75;;;4.33;67.47
20368;BME280;10343;52.402;9.796;2024-01-15T12:08:13;99115.53;;;4.10;68.07
20368;BME280;10343;52.402;9.796;2024-01-15T12:10:41;99124.72;;;4.00;68.35
20368;BME280;10343;52.402;9.796;2024-01-15T12:13:10;99126.63;;;4.00;68.57
20368;BME280;10343;52.402;9.796;2024-01-15T12:15:40;99108.94;;;3.75;69.28
20368;BME280;10343;52.402;9.796;2024-01-15T12:18:10;99112.19;;;3.63;69.68
20368;BME280;10343;52.402;9.796;2024-01-15T12:20:39;99112.47;;;3.75;69.79
20368;BME280;10343;52.402;9.796;2024-01-15T12:23:10;99110.19;;;3.69;69.10
20368;BME280;10343;52.402;9.796;2024-01-15T12:25:40;99109.56;;;3.72;68.99
20368;BME280;10343;52.402;9.796;2024-01-15T12:28:08;99116.41;;;3.55;68.52
20368;BME280;10343;52.402;9.796;2024-01-15T12:30:36;99114.81;;;3.68;67.93
20368;BME280;10343;52.402;9.796;2024-01-15T12:33:05;99123.44;;;3.70;67.82
20368;BME280;10343;52.402;9.796;2024-01-15T12:35:35;99117.94;;;4.11;66.92
20368;BME280;10343;52.402;9.796;2024-01-15T12:38:03;99113.78;;;4.28;65.70
20368;BME280;10343;52.402;9.796;2024-01-15T12:40:33;99118.66;;;4.39;66.02
20368;BME280;10343;52.402;9.796;2024-01-15T12:43:05;99123.44;;;4.34;65.28
20368;BME280;10343;52.402;9.796;2024-01-15T12:45:34;99124.38;;;4.15;66.10
20368;BME280;10343;52.402;9.796;2024-01-15T12:48:03;99120.56;;;4.16;66.50
20368;BME280;10343;52.402;9.796;2024-01-15T12:50:33;99119.09;;;3.83;67.00
20368;BME280;10343;52.402;9.796;2024-01-15T12:53:02;99109.28;;;4.09;66.73
20368;BME280;10343;52.402;9.796;2024-01-15T12:55:29;99120.91;;;3.87;67.15
20368;BME280;10343;52.402;9.796;2024-01-15T12:57:59;99124.84;;;3.95;67.33
20368;BME280;10343;52.402;9.796;2024-01-15T13:00:26;99124.72;;;4.00;66.90
20368;BME280;10343;52.402;9.796;2024-01-15T13:02:54;99123.59;;;4.15;65.98
20368;BME280;10343;52.402;9.796;2024-01-15T13:05:24;99120.94;;;4.23;66.41
20368;BME280;10343;52.402;9.796;2024-01-15T13:07:54;99126.94;;;3.98;67.18
20368;BME280;10343;52.402;9.796;2024-01-15T13:10:22;99123.94;;;3.86;67.32
20368;BME280;10343;52.402;9.796;2024-01-15T13:12:52;99124.72;;;3.73;68.00
20368;BME280;10343;52.402;9.796;2024-01-15T13:15:21;99123.94;;;3.72;68.37
20368;BME280;10343;52.402;9.796;2024-01-15T13:17:49;99124.94;;;3.76;69.00